Time;durP1;ratioP1;P1;durP2;ratioP2;P2;SDS_P1;SDS_P2;PMS_P1;PMS_P2;Temp;Humidity;BMP_temperature;BMP_pressure;BME280_temperature;BME280_humidity;BME280_pressure;Samples;Min_cycle;Max_cycle;Signal;HPM_P1;HPM_P2
2022/04/07 00:01:14;;;;;;;4.35;1.55;;;;;;;12.53;57.24;99110.72;5032728;28;20068;-52
2022/04/07 00:03:40;;;;;;;2.83;1.33;;;;;;;12.51;56.96;99102.97;5027834;28;20053;-55
2022/04/07 00:06:09;;;;;;;3.60;1.55;;;;;;;12.53;56.81;99095.22;5027963;28;20453;-54
2022/04/07 00:08:39;;;;;;;3.58;1.35;;;;;;;12.51;56.91;99082.31;5027867;28;20083;-54
2022/04/07 00:11:04;;;;;;;6.28;1.58;;;;;;;12.52;57.00;99078.88;5029856;28;20377;-54
2022/04/07 00:13:30;;;;;;;3.60;1.50;;;;;;;12.50;56.97;99070.25;5029421;28;20017;-51
2022/04/07 00:15:58;;;;;;;3.13;1.30;;;;;;;12.52;56.87;99076.28;5031753;28;20026;-54
2022/04/07 00:18:24;;;;;;;5.82;1.50;;;;;;;12.52;56.94;99067.66;5032945;28;20102;-55
2022/04/07 00:20:52;;;;;;;4.57;1.55;;;;;;;12.52;57.04;99078.88;5030590;28;20025;-55
2022/04/07 00:23:18;;;;;;;2.85;1.27;;;;;;;12.52;57.08;99073.69;5032010;28;20021;-55
2022/04/07 00:25:43;;;;;;;4.10;1.38;;;;;;;12.53;57.06;99071.97;5033465;28;20345;-54
2022/04/07 00:28:08;;;;;;;5.53;1.25;;;;;;;12.52;57.19;99054.72;5032799;28;20148;-55
2022/04/07 00:30:36;;;;;;;3.45;1.50;;;;;;;12.52;56.84;99053.03;5034136;28;20116;-54
2022/04/07 00:33:04;;;;;;;3.47;1.10;;;;;;;12.51;56.64;99046.13;5032389;28;20021;-53
2022/04/07 00:35:29;;;;;;;2.53;1.50;;;;;;;12.52;56.59;99037.53;5035073;28;20036;-54
2022/04/07 00:37:55;;;;;;;3.03;1.30;;;;;;;12.53;56.51;99038.38;5034934;28;20017;-54
2022/04/07 00:40:20;;;;;;;4.18;1.35;;;;;;;12.51;57.01;99030.63;5036658;28;20044;-54
2022/04/07 00:42:47;;;;;;;4.18;1.60;;;;;;;12.52;56.80;99024.59;5036219;28;20028;-55
2022/04/07 00:45:14;;;;;;;2.70;1.30;;;;;;;12.52;56.63;99019.44;5030444;28;20029;-54
2022/04/07 00:47:40;;;;;;;5.60;1.40;;;;;;;12.52;56.84;99006.50;5031142;28;20056;-55
2022/04/07 00:50:06;;;;;;;5.65;1.63;;;;;;;12.52;56.67;99006.50;5030295;28;20104;-54
2022/04/07 00:52:32;;;;;;;3.42;1.38;;;;;;;12.52;56.74;98993.59;5024969;28;20025;-55
2022/04/07 00:54:58;;;;;;;6.05;2.05;;;;;;;12.51;56.77;98989.28;5028126;28;20021;-54
2022/04/07 00:57:24;;;;;;;3.92;1.63;;;;;;;12.51;56.85;98991.88;5027726;28;20046;-54
2022/04/07 00:59:50;;;;;;;4.13;1.58;;;;;;;12.53;56.76;98991.84;5026815;28;20013;-55
2022/04/07 01:02:15;;;;;;;3.88;1.40;;;;;;;12.54;56.75;98979.78;5027312;28;20108;-54
2022/04/07 01:04:41;;;;;;;3.08;1.30;;;;;;;12.54;56.65;98992.69;5027881;28;20164;-55
2022/04/07 01:07:07;;;;;;;3.97;1.70;;;;;;;12.53;56.76;98986.69;5029625;28;20068;-54
2022/04/07 01:09:33;;;;;;;4.63;1.50;;;;;;;12.52;56.62;98972.91;5027727;28;20065;-52
2022/04/07 01:11:58;;;;;;;4.05;1.60;;;;;;;12.52;56.73;98972.03;5028605;28;20048;-54
2022/04/07 01:14:24;;;;;;;4.32;1.52;;;;;;;12.53;56.79;98955.66;5030158;28;20052;-53
2022/04/07 01:16:49;;;;;;;3.53;1.40;;;;;;;12.51;56.63;98963.44;5030677;28;20032;-55
2022/04/07 01:19:15;;;;;;;4.63;1.20;;;;;;;12.52;56.91;98953.97;5030966;28;20021;-52
2022/04/07 01:21:41;;;;;;;2.33;1.25;;;;;;;12.52;56.92;98965.16;5029710;28;20357;-55
2022/04/07 01:24:09;;;;;;;7.38;1.60;;;;;;;12.52;56.81;98969.47;5033136;28;20024;-51
2022/04/07 01:26:42;;;;;;;7.70;1.45;;;;;;;12.54;56.81;98956.53;5031760;28;20033;-52
2022/04/07 01:29:10;;;;;;;3.25;1.42;;;;;;;12.53;56.99;98950.50;5034025;28;20040;-53
2022/04/07 01:31:37;;;;;;;5.13;1.50;;;;;;;12.52;57.08;98939.31;5036614;28;20028;-55
2022/04/07 01:34:06;;;;;;;4.75;1.50;;;;;;;12.52;56.86;98939.31;5040475;28;20024;-53
2022/04/07 01:36:36;;;;;;;4.57;1.60;;;;;;;12.51;56.99;98927.28;5031639;28;20446;-55
2022/04/07 01:39:02;;;;;;;5.70;1.40;;;;;;;12.51;56.94;98935.03;5028243;28;20017;-54
2022/04/07 01:41:28;;;;;;;4.35;1.67;;;;;;;12.52;56.96;98920.38;5027738;28;20125;-54
2022/04/07 01:43:58;;;;;;;3.72;1.20;;;;;;;12.52;56.88;98913.50;5027205;28;20128;-52
2022/04/07 01:46:24;;;;;;;5.18;1.48;;;;;;;12.52;56.88;98908.31;5029609;28;20370;-52
2022/04/07 01:48:51;;;;;;;3.22;1.27;;;;;;;12.51;56.88;98897.97;5030977;28;20123;-54
2022/04/07 01:51:18;;;;;;;3.35;1.58;;;;;;;12.50;56.76;98897.13;5037068;28;20021;-54
2022/04/07 01:53:45;;;;;;;2.38;1.27;;;;;;;12.50;56.87;98894.53;5038094;28;20029;-54
2022/04/07 01:56:12;;;;;;;5.50;1.35;;;;;;;12.52;56.87;98889.34;5033733;28;20029;-54
2022/04/07 01:58:39;;;;;;;3.13;1.33;;;;;;;12.52;56.38;98882.47;5036104;28;20026;-55
2022/04/07 02:01:04;;;;;;;4.97;1.38;;;;;;;12.51;56.83;98865.25;5038090;28;20056;-54
2022/04/07 02:03:30;;;;;;;7.03;1.90;;;;;;;12.52;56.85;98879.91;5040141;28;20064;-54
2022/04/07 02:06:09;;;;;;;3.97;1.27;;;;;;;12.56;56.65;98880.69;5042632;28;20025;-54
2022/04/07 02:08:34;;;;;;;3.03;1.33;;;;;;;12.54;56.27;98868.66;5041355;28;20441;-55
2022/04/07 02:10:59;;;;;;;4.07;1.50;;;;;;;12.52;56.82;98872.16;5039703;28;20052;-54
2022/04/07 02:13:25;;;;;;;4.80;1.55;;;;;;;12.54;56.52;98886.75;5041706;28;20047;-52
2022/04/07 02:15:50;;;;;;;5.32;1.50;;;;;;;12.52;56.88;98871.28;5042149;28;20029;-54
2022/04/07 02:18:16;;;;;;;5.65;1.63;;;;;;;12.51;56.79;98873.00;5043031;28;20420;-54
2022/04/07 02:20:41;;;;;;;4.78;1.40;;;;;;;12.52;56.64;98855.75;5042777;28;20067;-54
2022/04/07 02:23:06;;;;;;;4.60;1.38;;;;;;;12.54;56.76;98853.16;5044310;28;20079;-55
2022/04/07 02:25:32;;;;;;;3.72;1.40;;;;;;;12.51;56.55;98841.13;5042893;28;20031;-53
2022/04/07 02:27:57;;;;;;;4.93;1.60;;;;;;;12.52;56.75;98851.47;5028702;28;20047;-55
2022/04/07 02:30:23;;;;;;;7.78;1.40;;;;;;;12.52;56.92;98853.19;5029733;28;20091;-54
2022/04/07 02:32:48;;;;;;;6.30;1.60;;;;;;;12.52;56.79;98838.56;5031504;28;20029;-55
2022/04/07 02:35:14;;;;;;;3.92;1.40;;;;;;;12.52;56.78;98850.59;5031314;28;20029;-54
2022/04/07 02:37:40;;;;;;;4.80;1.70;;;;;;;12.51;56.63;98841.13;5031340;28;20178;-54
2022/04/07 02:40:06;;;;;;;3.17;1.30;;;;;;;12.51;56.77;98831.66;5033361;28;20018;-54
2022/04/07 02:42:31;;;;;;;4.20;1.38;;;;;;;12.50;56.84;98824.78;5034346;28;20029;-53
2022/04/07 02:44:56;;;;;;;4.65;1.20;;;;;;;12.51;56.60;98825.63;5036209;28;20377;-54
2022/04/07 02:47:32;;;;;;;4.10;1.40;;;;;;;12.52;56.60;98817.00;5038656;28;20050;-54
2022/04/07 02:49:58;;;;;;;5.40;1.42;;;;;;;12.51;56.89;98823.91;5038754;28;20025;-52
2022/04/07 02:52:23;;;;;;;4.90;1.77;;;;;;;12.52;56.72;98812.72;5041172;28;20031;-55
2022/04/07 02:54:48;;;;;;;6.30;1.60;;;;;;;12.51;57.14;98802.38;5040451;28;20017;-55
2022/04/07 02:57:14;;;;;;;5.30;1.70;;;;;;;12.51;56.80;98797.19;5041546;28;20464;-51
2022/04/07 02:59:39;;;;;;;4.30;1.48;;;;;;;12.50;56.69;98787.75;5040659;28;20172;-55
2022/04/07 03:02:05;;;;;;;3.42;1.20;;;;;;;12.51;56.73;98780.00;5042244;28;20417;-53
2022/04/07 03:04:30;;;;;;;3.08;0.98;;;;;;;12.50;56.89;98765.34;5042362;28;20036;-54
2022/04/07 03:06:56;;;;;;;5.07;1.55;;;;;;;12.50;56.42;98765.34;5043054;28;20048;-53
2022/04/07 03:09:22;;;;;;;5.32;1.45;;;;;;;12.51;56.58;98756.75;5042082;28;20092;-55
2022/04/07 03:11:47;;;;;;;5.25;1.20;;;;;;;12.51;56.70;98750.69;5043329;28;20021;-53
2022/04/07 03:14:13;;;;;;;5.30;1.80;;;;;;;12.50;56.65;98749.84;5041875;28;20112;-53
2022/04/07 03:16:39;;;;;;;5.95;1.70;;;;;;;12.50;56.67;98739.53;5035866;28;20017;-55
2022/04/07 03:19:05;;;;;;;5.07;1.35;;;;;;;12.50;56.65;98731.75;5033344;28;20031;-52
2022/04/07 03:21:30;;;;;;;4.25;1.23;;;;;;;12.49;56.70;98719.72;5035938;28;20033;-54
2022/04/07 03:23:56;;;;;;;3.25;1.20;;;;;;;12.51;56.50;98722.28;5036376;28;20103;-54
2022/04/07 03:26:21;;;;;;;4.93;1.42;;;;;;;12.51;56.66;98717.97;5039485;28;20032;-54
2022/04/07 03:28:46;;;;;;;7.63;1.45;;;;;;;12.51;56.64;98712.81;5038779;28;20022;-54
2022/04/07 03:31:12;;;;;;;5.13;1.40;;;;;;;12.50;56.56;98718.84;5037408;28;20025;-55
2022/04/07 03:33:37;;;;;;;6.05;1.60;;;;;;;12.50;56.84;98713.69;5040421;28;20029;-54
2022/04/07 03:36:03;;;;;;;5.25;1.33;;;;;;;12.51;56.61;98691.28;5039418;28;20460;-52
2022/04/07 03:38:28;;;;;;;5.00;1.40;;;;;;;12.51;56.59;98711.94;5039261;28;20104;-55
2022/04/07 03:40:54;;;;;;;3.88;1.50;;;;;;;12.50;56.85;98703.34;5040513;28;20017;-54
2022/04/07 03:43:19;;;;;;;7.82;1.50;;;;;;;12.50;56.68;98698.19;5040158;28;20446;-54
2022/04/07 03:45:44;;;;;;;4.63;1.58;;;;;;;12.50;56.99;98689.59;5039881;28;20107;-53
2022/04/07 03:48:10;;;;;;;5.85;1.30;;;;;;;12.49;56.70;98683.53;5040691;28;20060;-55
2022/04/07 03:50:35;;;;;;;5.63;1.55;;;;;;;12.49;56.88;98680.97;5040729;28;20029;-54
2022/04/07 03:53:01;;;;;;;5.93;1.75;;;;;;;12.50;56.94;98671.50;5040773;28;20056;-52
2022/04/07 03:55:26;;;;;;;4.05;1.30;;;;;;;12.51;56.88;98694.72;5041567;28;20067;-54
2022/04/07 03:57:52;;;;;;;4.68;1.40;;;;;;;12.50;56.87;98676.66;5041824;28;20037;-52
2022/04/07 04:00:18;;;;;;;3.45;1.33;;;;;;;12.50;56.65;98674.94;5042048;28;20009;-53
2022/04/07 04:02:43;;;;;;;3.55;1.17;;;;;;;12.49;56.75;98662.88;5040375;28;20029;-55
2022/04/07 04:05:08;;;;;;;4.15;1.52;;;;;;;12.50;56.59;98656.84;5041652;28;20024;-55
2022/04/07 04:07:34;;;;;;;6.85;1.55;;;;;;;12.50;56.60;98641.34;5033736;28;20024;-54
2022/04/07 04:10:01;;;;;;;9.23;1.58;;;;;;;12.50;56.59;98631.00;5035627;28;20049;-54
2022/04/07 04:12:26;;;;;;;5.50;1.95;;;;;;;12.49;56.74;98613.78;5034845;28;20020;-55
2022/04/07 04:14:51;;;;;;;5.13;1.35;;;;;;;12.50;56.33;98604.31;5035397;28;20118;-53
2022/04/07 04:17:17;;;;;;;3.75;1.30;;;;;;;12.48;56.56;98606.91;5036101;28;20024;-54
2022/04/07 04:19:42;;;;;;;6.25;1.60;;;;;;;12.50;56.64;98583.66;5037255;28;20126;-55
2022/04/07 04:22:07;;;;;;;5.53;1.77;;;;;;;12.49;56.81;98572.44;5039514;28;20060;-54
2022/04/07 04:24:33;;;;;;;6.53;1.60;;;;;;;12.50;56.67;98548.31;5038883;28;20108;-54
2022/04/07 04:26:58;;;;;;;6.70;1.48;;;;;;;12.50;56.53;98553.50;5039330;28;20147;-54
2022/04/07 04:29:23;;;;;;;3.75;1.45;;;;;;;12.50;56.37;98557.81;5038589;28;20033;-54
2022/04/07 04:31:49;;;;;;;4.18;1.30;;;;;;;12.50;56.33;98547.50;5038305;28;20368;-54
2022/04/07 04:34:14;;;;;;;6.03;1.63;;;;;;;12.48;56.58;98542.31;5039846;28;20143;-52
2022/04/07 04:36:39;;;;;;;3.08;1.15;;;;;;;12.49;56.49;98550.94;5041246;28;20106;-54
2022/04/07 04:39:05;;;;;;;6.32;1.60;;;;;;;12.50;56.52;98542.31;5040523;28;20060;-54
2022/04/07 04:41:30;;;;;;;5.00;1.10;;;;;;;12.48;56.47;98531.97;5040634;28;20029;-54
2022/04/07 04:43:56;;;;;;;4.93;1.55;;;;;;;12.50;56.54;98527.66;5040588;28;20028;-54
2022/04/07 04:46:21;;;;;;;4.85;1.30;;;;;;;12.50;56.50;98542.31;5041327;28;20025;-54
2022/04/07 04:48:47;;;;;;;3.63;1.40;;;;;;;12.47;56.83;98527.72;5042685;28;20025;-54
2022/04/07 04:51:12;;;;;;;3.05;1.42;;;;;;;12.49;56.44;98504.44;5042460;28;20029;-55
2022/04/07 04:53:38;;;;;;;5.82;1.38;;;;;;;12.49;56.45;98497.53;5038918;28;20345;-54
2022/04/07 04:56:04;;;;;;;3.90;1.15;;;;;;;12.49;56.41;98500.09;5033915;28;20040;-52
2022/04/07 04:58:29;;;;;;;4.50;1.40;;;;;;;12.49;56.49;98500.09;5039593;28;20068;-52
2022/04/07 05:00:55;;;;;;;3.22;1.20;;;;;;;12.49;56.45;98479.44;5035637;28;20021;-54
2022/04/07 05:03:20;;;;;;;2.97;1.20;;;;;;;12.48;56.54;98469.97;5039996;28;20031;-52
2022/04/07 05:05:45;;;;;;;3.17;1.00;;;;;;;12.47;56.54;98460.56;5037135;28;20389;-54
2022/04/07 05:08:11;;;;;;;5.78;1.25;;;;;;;12.48;56.70;98451.91;5037195;28;20083;-55
2022/04/07 05:10:37;;;;;;;3.33;1.15;;;;;;;12.48;56.63;98438.97;5033752;28;20045;-54
2022/04/07 05:13:02;;;;;;;3.28;1.15;;;;;;;12.48;56.50;98446.72;5035362;28;20155;-50
2022/04/07 05:15:28;;;;;;;3.13;1.00;;;;;;;12.49;56.32;98442.44;5030683;28;20091;-53
2022/04/07 05:17:54;;;;;;;3.05;0.95;;;;;;;12.48;56.29;98458.81;5033940;28;20345;-54
2022/04/07 05:20:20;;;;;;;3.25;1.05;;;;;;;12.48;56.40;98451.91;5036568;28;20020;-50
2022/04/07 05:22:46;;;;;;;2.97;0.98;;;;;;;12.47;56.36;98432.13;5034270;28;20456;-55
2022/04/07 05:25:12;;;;;;;2.85;1.23;;;;;;;12.47;56.51;98419.22;5035655;28;20028;-54
2022/04/07 05:27:38;;;;;;;3.53;1.30;;;;;;;12.47;56.32;98416.63;5054459;28;20025;-55
2022/04/07 05:30:08;;;;;;;3.72;1.08;;;;;;;12.48;56.29;98402.81;5038897;28;20168;-53
2022/04/07 05:32:34;;;;;;;2.70;0.98;;;;;;;12.48;56.20;98405.41;5039460;28;20032;-54
2022/04/07 05:35:00;;;;;;;2.90;1.00;;;;;;;12.47;56.51;98393.38;5040166;28;20025;-55
2022/04/07 05:37:25;;;;;;;3.55;1.00;;;;;;;12.48;56.33;98391.63;5040637;28;20035;-54
2022/04/07 05:39:51;;;;;;;4.35;1.10;;;;;;;12.47;56.13;98388.22;5039523;28;20017;-53
2022/04/07 05:42:17;;;;;;;2.30;1.10;;;;;;;12.47;56.61;98380.47;5038746;28;20036;-54
2022/04/07 05:44:43;;;;;;;3.42;1.40;;;;;;;12.47;56.32;98379.59;5039719;28;20025;-54
2022/04/07 05:47:08;;;;;;;1.48;0.93;;;;;;;12.47;56.39;98383.03;5035532;28;20021;-55
2022/04/07 05:49:34;;;;;;;3.90;0.90;;;;;;;12.47;56.39;98366.66;5037394;28;20131;-51
2022/04/07 05:52:02;;;;;;;3.60;1.10;;;;;;;12.47;56.40;98354.63;5030398;28;20009;-53
2022/04/07 05:54:28;;;;;;;2.70;1.15;;;;;;;12.47;56.46;98361.50;5028942;28;20030;-54
2022/04/07 05:56:53;;;;;;;3.17;0.90;;;;;;;12.46;56.44;98324.50;5034462;28;20062;-53
2022/04/07 05:59:19;;;;;;;3.25;1.15;;;;;;;12.47;56.54;98336.53;5034441;28;20349;-54
2022/04/07 06:01:44;;;;;;;2.83;1.00;;;;;;;12.47;56.32;98326.22;5032642;28;20446;-54
2022/04/07 06:04:10;;;;;;;2.88;1.10;;;;;;;12.47;56.16;98333.09;5036135;28;20025;-53
2022/04/07 06:06:35;;;;;;;3.13;1.05;;;;;;;12.47;56.28;98315.88;5032972;28;20087;-55
2022/04/07 06:09:00;;;;;;;3.35;1.20;;;;;;;12.47;56.37;98313.28;5035136;28;20083;-52
2022/04/07 06:11:26;;;;;;;3.00;1.02;;;;;;;12.47;56.27;98304.69;5033949;28;20033;-54
2022/04/07 06:13:51;;;;;;;3.67;1.00;;;;;;;12.47;56.41;98295.22;5036596;28;20038;-51
2022/04/07 06:16:16;;;;;;;3.15;0.98;;;;;;;12.48;56.08;98298.63;5036991;28;20448;-54
2022/04/07 06:18:42;;;;;;;3.17;1.38;;;;;;;12.47;56.44;98294.34;5034890;28;20091;-54
2022/04/07 06:21:07;;;;;;;3.65;1.00;;;;;;;12.48;56.24;98275.38;5034610;28;20039;-54
2022/04/07 06:23:32;;;;;;;4.05;1.15;;;;;;;12.47;56.32;98277.13;5035945;28;20120;-54
2022/04/07 06:25:58;;;;;;;2.03;0.90;;;;;;;12.47;56.16;98268.50;5032706;28;20510;-54
2022/04/07 06:28:23;;;;;;;3.53;1.50;;;;;;;12.47;56.24;98263.34;5032092;28;20029;-54
2022/04/07 06:30:51;;;;;;;4.50;1.10;;;;;;;12.48;56.29;98263.31;5033445;28;20357;-54
2022/04/07 06:33:17;;;;;;;2.50;1.00;;;;;;;12.47;56.37;98253.88;5033202;28;20347;-52
2022/04/07 06:35:43;;;;;;;2.92;1.15;;;;;;;12.47;56.41;98259.03;5037357;28;20021;-53
2022/04/07 06:38:08;;;;;;;5.07;1.30;;;;;;;12.48;56.25;98242.63;5037324;28;20091;-54
2022/04/07 06:40:34;;;;;;;2.92;0.93;;;;;;;12.47;56.32;98238.38;5034163;28;20100;-54
2022/04/07 06:42:59;;;;;;;3.03;1.42;;;;;;;12.48;56.12;98224.56;5038188;28;20116;-53
2022/04/07 06:45:26;;;;;;;2.88;1.02;;;;;;;12.47;56.14;98212.53;5037401;28;20391;-53
2022/04/07 06:47:52;;;;;;;3.40;1.03;;;;;;;12.48;56.08;98200.47;5038162;28;20346;-54
2022/04/07 06:50:18;;;;;;;4.07;1.10;;;;;;;12.48;56.09;98188.38;5044067;28;20075;-54
2022/04/07 06:52:44;;;;;;;3.22;1.13;;;;;;;12.47;56.37;98197.03;5042452;28;20131;-54
2022/04/07 06:55:11;;;;;;;2.40;1.20;;;;;;;12.48;56.00;98183.22;5035857;28;20022;-54
2022/04/07 06:57:53;;;;;;;6.03;1.35;;;;;;;12.51;56.31;98183.19;5037853;28;20042;-54
2022/04/07 07:00:21;;;;;;;2.47;1.00;;;;;;;12.49;56.19;98169.44;5039234;28;20102;-54
2022/04/07 07:02:54;;;;;;;4.18;1.35;;;;;;;12.50;56.12;98163.38;5039079;28;20032;-53
2022/04/07 07:05:27;;;;;;;5.70;1.10;;;;;;;12.50;55.98;98154.81;5040427;28;20021;-54
2022/04/07 07:07:52;;;;;;;3.53;1.17;;;;;;;12.50;56.15;98147.06;5037902;28;20186;-52
2022/04/07 07:10:28;;;;;;;2.45;0.90;;;;;;;12.50;55.98;98140.13;5034364;28;20636;-54
2022/04/07 07:12:54;;;;;;;3.08;0.93;;;;;;;12.50;56.00;98123.81;5035574;28;20021;-53
2022/04/07 07:15:23;;;;;;;1.77;1.00;;;;;;;12.49;55.92;98117.75;5037229;28;20031;-53
2022/04/07 07:17:49;;;;;;;3.65;1.10;;;;;;;12.49;55.82;98110.00;5036150;28;20052;-54
2022/04/07 07:20:14;;;;;;;2.30;0.90;;;;;;;12.48;56.00;98095.38;5040682;28;20013;-53
2022/04/07 07:22:41;;;;;;;3.65;0.80;;;;;;;12.49;55.97;98091.94;5041001;28;20425;-52
2022/04/07 07:25:08;;;;;;;2.83;0.73;;;;;;;12.48;55.89;98085.06;5042561;28;20485;-54
2022/04/07 07:27:45;;;;;;;5.00;1.00;;;;;;;12.50;55.94;98080.72;5039761;28;20338;-52
2022/04/07 07:30:12;;;;;;;3.17;1.05;;;;;;;12.48;56.05;98064.38;5041239;28;20033;-55
2022/04/07 07:32:38;;;;;;;1.90;0.80;;;;;;;12.49;55.82;98048.00;5041279;28;20051;-53
2022/04/07 07:35:04;;;;;;;2.30;1.00;;;;;;;12.49;55.89;98052.34;5041179;28;20291;-51
2022/04/07 07:37:30;;;;;;;2.08;0.90;;;;;;;12.48;55.97;98074.72;5042152;28;20702;-55
2022/04/07 07:39:56;;;;;;;3.55;0.98;;;;;;;12.49;56.13;98140.19;5040736;28;20044;-51
2022/04/07 07:42:21;;;;;;;2.92;1.00;;;;;;;12.49;56.41;98116.94;5043065;28;20360;-54
2022/04/07 07:44:46;;;;;;;3.17;0.73;;;;;;;12.49;56.56;98153.94;5042506;28;20029;-53
2022/04/07 07:47:12;;;;;;;2.38;0.75;;;;;;;12.48;56.53;98141.88;5042744;28;20041;-55
2022/04/07 07:49:37;;;;;;;2.75;0.98;;;;;;;12.49;56.63;98194.44;5042690;28;20024;-55
2022/04/07 07:52:03;;;;;;;4.15;0.88;;;;;;;12.48;56.71;98219.38;5042664;28;20033;-54
2022/04/07 07:54:28;;;;;;;2.72;1.23;;;;;;;12.49;56.75;98233.19;5039109;28;20147;-55
2022/04/07 07:56:54;;;;;;;3.53;0.82;;;;;;;12.49;56.55;98240.94;5037092;28;20025;-54
2022/04/07 07:59:20;;;;;;;3.47;0.80;;;;;;;12.48;56.61;98234.06;5035403;28;20086;-55
2022/04/07 08:01:46;;;;;;;2.95;0.80;;;;;;;12.48;56.48;98219.38;5034525;28;20028;-54
2022/04/07 08:04:12;;;;;;;3.60;0.93;;;;;;;12.48;56.64;98211.63;5037781;28;20613;-53
2022/04/07 08:06:39;;;;;;;3.83;0.90;;;;;;;12.49;56.44;98202.19;5039153;28;20095;-54
2022/04/07 08:09:05;;;;;;;2.03;0.80;;;;;;;12.49;56.73;98202.19;5036370;28;20032;-50
2022/04/07 08:11:30;;;;;;;4.18;0.90;;;;;;;12.48;56.49;98188.38;5038344;28;20033;-53
2022/04/07 08:13:56;;;;;;;3.22;1.08;;;;;;;12.47;56.59;98202.22;5036904;28;20371;-55
2022/04/07 08:16:21;;;;;;;2.47;0.77;;;;;;;12.49;56.08;98197.00;5038900;28;20029;-55
2022/04/07 08:18:46;;;;;;;3.00;1.00;;;;;;;12.48;56.42;98183.22;5036566;28;20098;-54
2022/04/07 08:21:12;;;;;;;2.17;0.80;;;;;;;12.49;56.29;98191.84;5038176;28;20361;-53
2022/04/07 08:23:37;;;;;;;4.68;1.13;;;;;;;12.49;56.48;98190.09;5033043;28;20102;-55
2022/04/07 08:26:02;;;;;;;2.10;0.95;;;;;;;12.50;56.69;98194.38;5038744;28;20044;-53
2022/04/07 08:28:28;;;;;;;2.53;0.80;;;;;;;12.49;56.24;98195.25;5036683;28;20033;-55
2022/04/07 08:30:53;;;;;;;1.48;0.70;;;;;;;12.50;56.31;98196.13;5037339;28;20033;-55
2022/04/07 08:33:18;;;;;;;3.10;0.90;;;;;;;12.51;56.19;98178.00;5037771;28;20040;-55
2022/04/07 08:35:44;;;;;;;1.98;0.82;;;;;;;12.50;56.35;98181.47;5038947;28;20098;-55
2022/04/07 08:38:14;;;;;;;2.53;0.80;;;;;;;12.50;56.22;98186.63;5038523;28;20044;-51
2022/04/07 08:40:41;;;;;;;2.50;0.80;;;;;;;12.50;56.20;98194.38;5038784;28;20031;-54
2022/04/07 08:43:08;;;;;;;2.53;0.90;;;;;;;12.52;56.41;98181.44;5040681;28;20020;-53
2022/04/07 08:45:41;;;;;;;2.10;0.70;;;;;;;12.51;56.30;98183.19;5037772;28;20036;-55
2022/04/07 08:48:10;;;;;;;3.90;0.85;;;;;;;12.52;56.49;98174.56;5038544;28;20032;-53
2022/04/07 08:50:41;;;;;;;2.40;0.68;;;;;;;12.52;56.31;98163.34;5039300;28;20107;-54
2022/04/07 08:53:07;;;;;;;2.53;1.05;;;;;;;12.52;56.35;98169.38;5037225;28;20028;-51
2022/04/07 08:55:33;;;;;;;2.30;0.75;;;;;;;12.54;56.21;98163.31;5040526;28;20033;-55
2022/04/07 08:58:00;;;;;;;3.95;0.88;;;;;;;12.53;56.32;98154.72;5041731;28;20017;-55
2022/04/07 09:00:26;;;;;;;2.35;0.90;;;;;;;12.53;56.35;98167.63;5051056;28;20013;-55
2022/04/07 09:02:55;;;;;;;1.83;0.70;;;;;;;12.53;56.25;98175.38;5051482;28;20120;-54
2022/04/07 09:05:25;;;;;;;2.75;0.90;;;;;;;12.53;56.48;98175.38;5051503;28;20353;-50
2022/04/07 09:07:57;;;;;;;4.72;0.85;;;;;;;12.54;56.31;98169.34;5051786;28;20046;-55
2022/04/07 09:10:25;;;;;;;2.05;0.95;;;;;;;12.53;56.36;98165.06;5034474;28;20044;-52
2022/04/07 09:12:52;;;;;;;2.45;0.93;;;;;;;12.54;56.49;98176.22;5035075;28;20023;-54
2022/04/07 09:15:18;;;;;;;6.25;0.73;;;;;;;12.54;56.45;98181.41;5034072;28;20056;-55
2022/04/07 09:17:54;;;;;;;2.35;0.68;;;;;;;12.54;56.51;98177.09;5034565;28;20390;-52
2022/04/07 09:20:21;;;;;;;1.33;0.70;;;;;;;12.54;56.42;98176.22;5035766;28;20017;-55
2022/04/07 09:23:01;;;;;;;3.70;1.10;;;;;;;12.56;56.49;98177.91;5034723;28;20025;-51
2022/04/07 09:25:27;;;;;;;2.25;0.70;;;;;;;12.54;56.97;98173.63;5036003;28;20021;-55
2022/04/07 09:27:54;;;;;;;3.78;0.90;;;;;;;12.54;56.84;98183.97;5037392;28;20307;-52
2022/04/07 09:30:20;;;;;;;2.65;0.95;;;;;;;12.55;56.90;98177.94;5036841;28;20045;-55
2022/04/07 09:32:46;;;;;;;2.55;1.13;;;;;;;12.55;56.73;98193.44;5036546;28;20794;-55
2022/04/07 09:35:12;;;;;;;2.50;0.90;;;;;;;12.56;57.21;98187.38;5036853;28;20029;-54
2022/04/07 09:37:40;;;;;;;4.05;1.02;;;;;;;12.56;57.42;98197.72;5037093;28;20031;-54
2022/04/07 09:40:13;;;;;;;4.13;1.10;;;;;;;12.57;57.30;98186.50;5037613;28;20021;-55
2022/04/07 09:42:41;;;;;;;3.50;0.95;;;;;;;12.55;57.23;98198.59;5038691;28;20025;-55
2022/04/07 09:45:11;;;;;;;3.88;0.90;;;;;;;12.57;57.53;98199.44;5039187;28;20059;-54
2022/04/07 09:47:44;;;;;;;3.97;1.15;;;;;;;12.56;57.29;98206.31;5039464;28;20115;-54
2022/04/07 09:50:23;;;;;;;2.88;0.80;;;;;;;12.58;57.19;98201.97;5039052;28;20021;-55
2022/04/07 09:52:59;;;;;;;2.80;0.95;;;;;;;12.57;57.62;98189.09;5039947;28;20116;-55
2022/04/07 09:55:40;;;;;;;5.20;1.42;;;;;;;12.57;57.79;98181.34;5040751;28;20033;-55
2022/04/07 09:58:10;;;;;;;2.83;1.00;;;;;;;12.57;57.86;98196.84;5040828;28;20106;-51
2022/04/07 10:00:36;;;;;;;5.85;1.35;;;;;;;12.57;58.03;98196.84;5040986;28;20017;-54
2022/04/07 10:03:03;;;;;;;3.63;0.85;;;;;;;12.57;58.05;98202.00;5042036;28;20017;-54
2022/04/07 10:05:29;;;;;;;4.97;0.95;;;;;;;12.57;58.03;98191.69;5041088;28;20025;-53
2022/04/07 10:07:57;;;;;;;3.67;1.10;;;;;;;12.57;58.14;98202.00;5042506;28;21778;-55
2022/04/07 10:10:23;;;;;;;4.88;1.63;;;;;;;12.57;58.36;98189.94;5033798;28;20342;-54
2022/04/07 10:12:49;;;;;;;6.20;1.38;;;;;;;12.57;58.09;98186.50;5043332;28;20021;-52
2022/04/07 10:15:16;;;;;;;5.50;1.10;;;;;;;12.59;58.91;98200.22;5038597;28;20033;-55
2022/04/07 10:17:41;;;;;;;4.72;1.00;;;;;;;12.58;58.50;98207.16;5039677;28;20021;-54
2022/04/07 10:20:17;;;;;;;1.95;0.80;;;;;;;12.61;58.56;98190.72;5039144;28;20082;-55
2022/04/07 10:23:13;;;;;;;6.60;1.20;;;;;;;12.62;58.24;98211.34;5038759;28;20017;-54
2022/04/07 10:25:43;;;;;;;5.45;1.10;;;;;;;12.61;58.87;98208.81;5038713;28;20455;-55
2022/04/07 10:28:10;;;;;;;4.32;0.95;;;;;;;12.60;59.16;98220.03;5039066;28;20040;-55
2022/04/07 10:30:55;;;;;;;4.55;1.20;;;;;;;12.64;58.46;98222.53;5038076;28;20033;-52
2022/04/07 10:33:38;;;;;;;7.05;1.50;;;;;;;12.65;58.56;98216.47;5037520;28;20412;-55
2022/04/07 10:36:21;;;;;;;4.32;0.82;;;;;;;12.65;58.58;98231.13;5040420;28;20017;-54
2022/04/07 10:38:49;;;;;;;5.95;1.02;;;;;;;12.63;58.92;98232.91;5038965;28;20047;-54
2022/04/07 10:41:39;;;;;;;7.65;1.10;;;;;;;12.66;58.48;98238.81;5041392;28;20083;-54
2022/04/07 10:44:15;;;;;;;7.75;1.25;;;;;;;12.66;59.33;98240.56;5042177;28;20318;-55
2022/04/07 10:46:40;;;;;;;6.93;1.35;;;;;;;12.63;59.38;98245.81;5042195;28;20429;-52
2022/04/07 10:49:10;;;;;;;7.03;1.42;;;;;;;12.64;59.45;98257.84;5041260;28;20040;-54
2022/04/07 10:51:43;;;;;;;6.93;0.93;;;;;;;12.64;59.58;98281.97;5041280;28;20047;-54
2022/04/07 10:54:09;;;;;;;7.72;1.40;;;;;;;12.64;60.06;98276.78;5042934;28;20100;-54
2022/04/07 10:56:35;;;;;;;5.72;1.20;;;;;;;12.64;59.99;98275.91;5041987;28;20438;-54
2022/04/07 10:59:21;;;;;;;6.50;1.30;;;;;;;12.68;59.52;98267.25;5041458;28;20025;-54
2022/04/07 11:02:05;;;;;;;4.00;1.07;;;;;;;12.68;59.51;98272.41;5041659;28;20063;-55
2022/04/07 11:04:37;;;;;;;6.38;1.30;;;;;;;12.67;59.66;98286.22;5042598;28;20302;-54
2022/04/07 11:07:07;;;;;;;6.68;1.38;;;;;;;12.68;59.62;98285.34;5042803;28;20021;-51
2022/04/07 11:09:57;;;;;;;8.57;1.90;;;;;;;12.69;59.36;98299.94;5041230;28;20639;-53
2022/04/07 11:12:31;;;;;;;6.63;1.10;;;;;;;12.68;60.01;98308.59;5039120;28;20028;-50
2022/04/07 11:15:02;;;;;;;8.50;1.58;;;;;;;12.67;60.03;98297.38;5041446;28;20021;-52
2022/04/07 11:17:57;;;;;;;6.55;1.30;;;;;;;12.68;60.08;98308.59;5034775;28;20048;-53
2022/04/07 11:20:24;;;;;;;9.00;1.38;;;;;;;12.68;60.27;98308.59;5044180;28;20043;-53
2022/04/07 11:23:08;;;;;;;7.45;1.58;;;;;;;12.68;59.99;98326.69;5032591;28;20052;-53
2022/04/07 11:25:37;;;;;;;8.05;1.60;;;;;;;12.68;59.69;98324.09;5038163;28;20087;-54
2022/04/07 11:28:22;;;;;;;5.25;1.50;;;;;;;12.71;59.81;98316.28;5038130;28;20017;-51
2022/04/07 11:30:52;;;;;;;8.38;2.08;;;;;;;12.66;59.97;98331.03;5034787;28;20040;-54
2022/04/07 11:33:20;;;;;;;9.15;1.50;;;;;;;12.66;60.45;98346.53;5036784;28;20021;-54
2022/04/07 11:35:58;;;;;;;7.32;1.60;;;;;;;12.68;59.96;98344.78;5035057;28;20081;-54